DZH403 LGMK-DAAG
Flight info
| Callsign | DZH403 |
|---|---|
| Flight time | N/A |
| Altitude | 34000 |
| Route | DIDIS UR32 MIL UP32 MONUV UN45 ROTAS/N0458F300 N45 BINKO M978 GZO M980 DEXOL M726 NEVNA L30 OMENI UL874 DIMAO UZ888 BABOR UA31 ALR |
| Aircraft | A321/M-SDE3FGHIRWY/LB1 |
Departure
| Time | 2026-04-29 21:53 |
|---|---|
| Airport | Mykonos Island National Airport (LGMK) |
Arrival
| Time | N/A |
|---|---|
| Airport | Houari Boumediene Airport (DAAG) |
| Time | Latitude | Longitude | Altitude | Speed | Heading |
|---|---|---|---|---|---|
| 2026-04-29 21:27 | 37.43546 | 25.34635 | 407 ft | 0 kts | 247° |
| 2026-04-29 21:45 | 37.43548 | 25.34641 | 407 ft | 4 kts | 245° |
| 2026-04-29 21:45 | 37.43562 | 25.34668 | 407 ft | 4 kts | 214° |
| 2026-04-29 21:46 | 37.43576 | 25.34677 | 405 ft | 4 kts | 180° |
| 2026-04-29 21:46 | 37.43587 | 25.34676 | 407 ft | 0 kts | 161° |
| 2026-04-29 21:48 | 37.43583 | 25.34677 | 407 ft | 2 kts | 161° |
| 2026-04-29 21:48 | 37.43558 | 25.34688 | 408 ft | 6 kts | 161° |
| 2026-04-29 21:49 | 37.43502 | 25.34712 | 408 ft | 11 kts | 161° |
| 2026-04-29 21:49 | 37.43432 | 25.34756 | 408 ft | 13 kts | 133° |
| 2026-04-29 21:49 | 37.43386 | 25.34856 | 411 ft | 13 kts | 126° |
| 2026-04-29 21:49 | 37.43299 | 25.34920 | 413 ft | 17 kts | 164° |
| 2026-04-29 21:50 | 37.43171 | 25.34967 | 412 ft | 21 kts | 162° |
| 2026-04-29 21:50 | 37.43038 | 25.35025 | 414 ft | 13 kts | 159° |
| 2026-04-29 21:50 | 37.42959 | 25.35062 | 413 ft | 11 kts | 160° |
| 2026-04-29 21:50 | 37.42886 | 25.35096 | 412 ft | 11 kts | 160° |
| 2026-04-29 21:51 | 37.42814 | 25.35130 | 411 ft | 11 kts | 160° |
| 2026-04-29 21:51 | 37.42756 | 25.35179 | 410 ft | 9 kts | 180° |
| 2026-04-29 21:51 | 37.42757 | 25.35163 | 410 ft | 0 kts | 328° |
| 2026-04-29 21:52 | 37.42782 | 25.35147 | 411 ft | 21 kts | 335° |
| 2026-04-29 21:52 | 37.43175 | 25.34970 | 413 ft | 93 kts | 341° |
| 2026-04-29 21:53 | 37.43963 | 25.34621 | 407 ft | 148 kts | 341° |
| 2026-04-29 21:53 | 37.45005 | 25.34237 | 912 ft | 150 kts | 343° |
| 2026-04-29 21:53 | 37.46017 | 25.33853 | 1442 ft | 156 kts | 340° |
| 2026-04-29 21:53 | 37.47058 | 25.33386 | 2003 ft | 161 kts | 338° |
| 2026-04-29 21:54 | 37.48093 | 25.32877 | 2427 ft | 162 kts | 336° |
| 2026-04-29 21:54 | 37.49173 | 25.32340 | 2672 ft | 172 kts | 335° |
| 2026-04-29 21:54 | 37.50284 | 25.31694 | 2875 ft | 182 kts | 330° |
| 2026-04-29 21:54 | 37.51361 | 25.30801 | 3164 ft | 189 kts | 318° |
| 2026-04-29 21:55 | 37.52311 | 25.29592 | 3334 ft | 202 kts | 306° |
| 2026-04-29 21:55 | 37.53005 | 25.27979 | 3454 ft | 218 kts | 288° |
| 2026-04-29 21:55 | 37.53239 | 25.26015 | 3593 ft | 238 kts | 266° |
| 2026-04-29 21:55 | 37.52967 | 25.23942 | 4141 ft | 242 kts | 259° |
| 2026-04-29 21:56 | 37.52654 | 25.21848 | 4758 ft | 245 kts | 259° |
| 2026-04-29 21:56 | 37.52290 | 25.19738 | 5341 ft | 249 kts | 249° |
| 2026-04-29 21:56 | 37.51296 | 25.17976 | 5931 ft | 252 kts | 217° |
| 2026-04-29 21:56 | 37.49737 | 25.16949 | 6530 ft | 255 kts | 202° |
| 2026-04-29 21:57 | 37.48048 | 25.16233 | 7118 ft | 258 kts | 195° |
| 2026-04-29 21:57 | 37.46281 | 25.15761 | 7698 ft | 261 kts | 188° |
| 2026-04-29 21:57 | 37.44461 | 25.15555 | 8280 ft | 265 kts | 181° |
| 2026-04-29 21:57 | 37.42609 | 25.15634 | 8863 ft | 268 kts | 174° |
| 2026-04-29 21:58 | 37.40760 | 25.16007 | 9448 ft | 271 kts | 167° |
| 2026-04-29 21:58 | 37.38941 | 25.16679 | 10038 ft | 274 kts | 159° |
| 2026-04-29 21:58 | 37.37191 | 25.17643 | 10556 ft | 276 kts | 152° |
| 2026-04-29 21:58 | 37.35539 | 25.18886 | 11090 ft | 279 kts | 145° |
| 2026-04-29 21:59 | 37.34007 | 25.20392 | 11614 ft | 281 kts | 137° |
| 2026-04-29 21:59 | 37.32631 | 25.22149 | 12149 ft | 284 kts | 130° |
| 2026-04-29 21:59 | 37.31411 | 25.24120 | 12668 ft | 288 kts | 130° |
| 2026-04-29 21:59 | 37.29873 | 25.25815 | 12827 ft | 304 kts | 151° |
| 2026-04-29 22:00 | 37.27846 | 25.26730 | 12957 ft | 319 kts | 174° |
| 2026-04-29 22:00 | 37.25596 | 25.26612 | 13097 ft | 333 kts | 196° |
| 2026-04-29 22:00 | 37.23354 | 25.25675 | 13228 ft | 348 kts | 201° |
| 2026-04-29 22:00 | 37.21103 | 25.24402 | 13354 ft | 362 kts | 213° |
| 2026-04-29 22:01 | 37.19130 | 25.22379 | 13668 ft | 369 kts | 229° |
| 2026-04-29 22:01 | 37.17507 | 25.19879 | 14148 ft | 372 kts | 233° |
| 2026-04-29 22:01 | 37.15897 | 25.17335 | 14641 ft | 374 kts | 233° |
| 2026-04-29 22:01 | 37.14268 | 25.14776 | 15134 ft | 377 kts | 233° |
| 2026-04-29 22:02 | 37.12625 | 25.12199 | 15622 ft | 379 kts | 233° |
| 2026-04-29 22:02 | 37.10985 | 25.09597 | 16105 ft | 382 kts | 233° |
| 2026-04-29 22:02 | 37.09346 | 25.06966 | 16581 ft | 384 kts | 233° |
| 2026-04-29 22:02 | 37.07705 | 25.04324 | 17062 ft | 387 kts | 233° |
| 2026-04-29 22:03 | 37.06043 | 25.01652 | 17523 ft | 389 kts | 233° |
| 2026-04-29 22:03 | 37.04372 | 24.98969 | 17961 ft | 392 kts | 233° |
| 2026-04-29 22:03 | 37.02708 | 24.96306 | 18397 ft | 395 kts | 233° |
| 2026-04-29 22:03 | 37.00989 | 24.93560 | 18784 ft | 397 kts | 233° |
| 2026-04-29 22:04 | 36.99281 | 24.90832 | 19178 ft | 399 kts | 233° |
| 2026-04-29 22:04 | 36.97564 | 24.88090 | 19546 ft | 402 kts | 233° |
| 2026-04-29 22:04 | 36.95857 | 24.85368 | 19923 ft | 404 kts | 233° |
| 2026-04-29 22:04 | 36.94118 | 24.82603 | 20293 ft | 406 kts | 233° |
| 2026-04-29 22:05 | 36.92360 | 24.79817 | 20660 ft | 409 kts | 233° |
| 2026-04-29 22:05 | 36.90597 | 24.77019 | 21038 ft | 411 kts | 233° |
| 2026-04-29 22:05 | 36.87053 | 24.71380 | 21733 ft | 416 kts | 233° |
| 2026-04-29 22:06 | 36.85254 | 24.68529 | 22090 ft | 418 kts | 233° |
| 2026-04-29 22:06 | 36.83447 | 24.65668 | 22447 ft | 421 kts | 233° |
| 2026-04-29 22:06 | 36.81628 | 24.62793 | 22810 ft | 423 kts | 233° |
| 2026-04-29 22:06 | 36.79797 | 24.59901 | 23161 ft | 425 kts | 233° |
| 2026-04-29 22:07 | 36.77964 | 24.57007 | 23499 ft | 428 kts | 233° |
| 2026-04-29 22:07 | 36.76110 | 24.54083 | 23819 ft | 430 kts | 233° |
| 2026-04-29 22:07 | 36.74254 | 24.51160 | 24114 ft | 432 kts | 233° |
| 2026-04-29 22:07 | 36.72408 | 24.48198 | 24416 ft | 433 kts | 234° |
| 2026-04-29 22:08 | 36.70590 | 24.45208 | 24722 ft | 434 kts | 235° |
| 2026-04-29 22:08 | 36.68773 | 24.42186 | 25025 ft | 435 kts | 236° |
| 2026-04-29 22:08 | 36.66965 | 24.39170 | 25310 ft | 436 kts | 236° |
| 2026-04-29 22:08 | 36.65142 | 24.36138 | 25607 ft | 437 kts | 236° |
| 2026-04-29 22:09 | 36.63311 | 24.33108 | 25920 ft | 438 kts | 236° |
| 2026-04-29 22:09 | 36.61470 | 24.30076 | 26214 ft | 439 kts | 236° |
| 2026-04-29 22:09 | 36.59624 | 24.27051 | 26502 ft | 440 kts | 235° |
| 2026-04-29 22:09 | 36.57766 | 24.24016 | 26779 ft | 442 kts | 236° |
| 2026-04-29 22:10 | 36.55905 | 24.20976 | 27048 ft | 443 kts | 236° |
| 2026-04-29 22:10 | 36.54033 | 24.17917 | 27304 ft | 444 kts | 236° |
| 2026-04-29 22:10 | 36.52161 | 24.14863 | 27574 ft | 445 kts | 236° |
| 2026-04-29 22:10 | 36.50282 | 24.11805 | 27836 ft | 446 kts | 236° |
| 2026-04-29 22:11 | 36.48398 | 24.08743 | 28093 ft | 447 kts | 236° |
| 2026-04-29 22:11 | 36.46503 | 24.05660 | 28340 ft | 448 kts | 237° |
| 2026-04-29 22:11 | 36.44610 | 24.02577 | 28612 ft | 449 kts | 237° |
| 2026-04-29 22:11 | 36.42709 | 23.99485 | 28856 ft | 451 kts | 237° |
| 2026-04-29 22:12 | 36.40804 | 23.96393 | 29102 ft | 452 kts | 237° |
| 2026-04-29 22:12 | 36.38893 | 23.93295 | 29352 ft | 452 kts | 237° |
| 2026-04-29 22:12 | 36.36986 | 23.90205 | 29691 ft | 451 kts | 237° |
| 2026-04-29 22:12 | 36.35082 | 23.87120 | 30024 ft | 450 kts | 237° |
| 2026-04-29 22:13 | 36.33183 | 23.84047 | 30319 ft | 448 kts | 237° |
| 2026-04-29 22:13 | 36.31309 | 23.81018 | 30594 ft | 447 kts | 237° |
| 2026-04-29 22:13 | 36.29394 | 23.77930 | 30877 ft | 446 kts | 237° |
| 2026-04-29 22:13 | 36.27506 | 23.74887 | 31180 ft | 444 kts | 237° |
| 2026-04-29 22:14 | 36.25627 | 23.71865 | 31513 ft | 441 kts | 237° |
| 2026-04-29 22:14 | 36.23782 | 23.68899 | 31832 ft | 439 kts | 237° |
| 2026-04-29 22:14 | 36.21920 | 23.65905 | 32140 ft | 437 kts | 237° |
| 2026-04-29 22:14 | 36.20071 | 23.62934 | 32446 ft | 435 kts | 238° |
| 2026-04-29 22:15 | 36.18224 | 23.59966 | 32735 ft | 434 kts | 238° |
| 2026-04-29 22:15 | 36.16391 | 23.57017 | 33012 ft | 432 kts | 238° |
| 2026-04-29 22:15 | 36.14602 | 23.53984 | 33289 ft | 427 kts | 244° |
| 2026-04-29 22:15 | 36.13264 | 23.50792 | 33547 ft | 420 kts | 253° |
| 2026-04-29 22:16 | 36.12387 | 23.47390 | 33793 ft | 413 kts | 262° |
| 2026-04-29 22:16 | 36.11984 | 23.43894 | 34024 ft | 408 kts | 270° |
| 2026-04-29 22:16 | 36.11935 | 23.40405 | 34087 ft | 403 kts | 272° |
| 2026-04-29 22:17 | 36.11871 | 23.33502 | 34094 ft | 400 kts | 272° |
| 2026-04-29 22:17 | 36.11794 | 23.26631 | 34101 ft | 399 kts | 272° |
| 2026-04-29 22:18 | 36.11713 | 23.19770 | 34096 ft | 399 kts | 272° |
| 2026-04-29 22:18 | 36.11613 | 23.12908 | 34096 ft | 400 kts | 271° |
| 2026-04-29 22:19 | 36.11306 | 23.06036 | 34103 ft | 400 kts | 269° |
| 2026-04-29 22:19 | 36.10888 | 22.99178 | 34104 ft | 400 kts | 269° |
| 2026-04-29 22:20 | 36.10493 | 22.92339 | 34102 ft | 399 kts | 269° |
| 2026-04-29 22:20 | 36.10131 | 22.85487 | 34098 ft | 399 kts | 269° |
| 2026-04-29 22:21 | 36.09782 | 22.78649 | 34098 ft | 399 kts | 269° |
| 2026-04-29 22:21 | 36.09420 | 22.71805 | 34087 ft | 398 kts | 269° |
| 2026-04-29 22:22 | 36.09044 | 22.64973 | 34089 ft | 398 kts | 269° |
| 2026-04-29 22:22 | 36.08661 | 22.58145 | 34091 ft | 398 kts | 269° |
| 2026-04-29 22:23 | 36.08274 | 22.51313 | 34089 ft | 398 kts | 269° |
| 2026-04-29 22:23 | 36.07890 | 22.44493 | 34088 ft | 398 kts | 269° |
| 2026-04-29 22:24 | 36.07498 | 22.37669 | 34092 ft | 398 kts | 269° |
| 2026-04-29 22:24 | 36.07105 | 22.30835 | 34093 ft | 398 kts | 269° |
| 2026-04-29 22:25 | 36.06717 | 22.24063 | 34093 ft | 398 kts | 269° |
| 2026-04-29 22:25 | 36.06317 | 22.17239 | 34077 ft | 398 kts | 269° |
| 2026-04-29 22:26 | 36.05910 | 22.10431 | 34086 ft | 397 kts | 269° |
| 2026-04-29 22:26 | 36.05507 | 22.03648 | 34113 ft | 395 kts | 269° |
| 2026-04-29 22:27 | 36.05096 | 21.96882 | 34112 ft | 394 kts | 269° |
| 2026-04-29 22:27 | 36.04734 | 21.90138 | 34114 ft | 393 kts | 270° |
| 2026-04-29 22:28 | 36.04397 | 21.83394 | 34111 ft | 393 kts | 269° |
| 2026-04-29 22:28 | 36.04040 | 21.76648 | 34099 ft | 393 kts | 269° |
| 2026-04-29 22:29 | 36.03730 | 21.71054 | 34105 ft | 393 kts | 269° |
| 2026-04-29 22:29 | 36.03301 | 21.63169 | 34098 ft | 393 kts | 269° |
| 2026-04-29 22:30 | 36.02933 | 21.56434 | 34098 ft | 393 kts | 269° |
| 2026-04-29 22:30 | 36.02560 | 21.49694 | 34093 ft | 393 kts | 269° |
| 2026-04-29 22:31 | 36.02177 | 21.42948 | 34103 ft | 393 kts | 269° |
| 2026-04-29 22:31 | 36.01792 | 21.36204 | 34095 ft | 393 kts | 269° |
| 2026-04-29 22:32 | 36.01404 | 21.29511 | 34102 ft | 393 kts | 269° |
| 2026-04-29 22:32 | 36.01016 | 21.22778 | 34095 ft | 392 kts | 269° |
| 2026-04-29 22:33 | 36.00624 | 21.16066 | 34113 ft | 391 kts | 269° |
| 2026-04-29 22:33 | 36.00226 | 21.09379 | 34111 ft | 390 kts | 269° |
| 2026-04-29 22:34 | 35.99828 | 21.02710 | 34115 ft | 389 kts | 269° |
| 2026-04-29 22:34 | 35.99481 | 20.97172 | 34115 ft | 389 kts | 269° |
| 2026-04-29 22:35 | 35.99061 | 20.90519 | 34109 ft | 389 kts | 269° |
| 2026-04-29 22:35 | 35.98648 | 20.83871 | 34108 ft | 388 kts | 269° |
| 2026-04-29 22:36 | 35.98228 | 20.77182 | 34100 ft | 388 kts | 269° |
| 2026-04-29 22:36 | 35.97805 | 20.70537 | 34103 ft | 388 kts | 269° |
| 2026-04-29 22:37 | 35.97389 | 20.63931 | 34098 ft | 388 kts | 269° |
| 2026-04-29 22:37 | 35.96971 | 20.57292 | 34103 ft | 388 kts | 269° |
| 2026-04-29 22:38 | 35.96537 | 20.50640 | 34100 ft | 388 kts | 269° |
| 2026-04-29 22:38 | 35.96100 | 20.43997 | 34087 ft | 388 kts | 269° |
| 2026-04-29 22:39 | 35.95661 | 20.37356 | 34092 ft | 388 kts | 269° |
| 2026-04-29 22:39 | 35.95224 | 20.30716 | 34083 ft | 388 kts | 269° |
| 2026-04-29 22:40 | 35.94776 | 20.24072 | 34093 ft | 388 kts | 269° |
| 2026-04-29 22:40 | 35.94330 | 20.17454 | 34102 ft | 387 kts | 269° |
| 2026-04-29 22:41 | 35.93870 | 20.10830 | 34104 ft | 387 kts | 268° |
| 2026-04-29 22:41 | 35.93397 | 20.04225 | 34105 ft | 387 kts | 268° |
| 2026-04-29 22:42 | 35.92929 | 19.97613 | 34105 ft | 386 kts | 269° |
| 2026-04-29 22:42 | 35.92459 | 19.91024 | 34105 ft | 386 kts | 268° |
| 2026-04-29 22:43 | 35.91980 | 19.84419 | 34109 ft | 386 kts | 268° |
| 2026-04-29 22:43 | 35.91498 | 19.77814 | 34104 ft | 386 kts | 268° |
| 2026-04-29 22:44 | 35.91020 | 19.71223 | 34109 ft | 386 kts | 268° |
| 2026-04-29 22:44 | 35.90535 | 19.64638 | 34108 ft | 385 kts | 268° |
| 2026-04-29 22:45 | 35.90049 | 19.58059 | 34103 ft | 385 kts | 268° |
| 2026-04-29 22:45 | 35.89559 | 19.51479 | 34097 ft | 385 kts | 268° |
| 2026-04-29 22:46 | 35.89058 | 19.44905 | 34095 ft | 385 kts | 268° |
| 2026-04-29 22:46 | 35.88553 | 19.38330 | 34095 ft | 385 kts | 268° |
| 2026-04-29 22:47 | 35.88054 | 19.31803 | 34084 ft | 385 kts | 268° |
| 2026-04-29 22:47 | 35.87550 | 19.25239 | 34096 ft | 384 kts | 268° |
| 2026-04-29 22:48 | 35.87038 | 19.18646 | 34100 ft | 384 kts | 268° |
| 2026-04-29 22:48 | 35.86517 | 19.12137 | 34104 ft | 384 kts | 268° |
| 2026-04-29 22:49 | 35.86001 | 19.05601 | 34099 ft | 383 kts | 268° |
| 2026-04-29 22:49 | 35.85489 | 18.99057 | 34101 ft | 383 kts | 268° |
| 2026-04-29 22:50 | 35.84967 | 18.92514 | 34106 ft | 384 kts | 268° |
| 2026-04-29 22:50 | 35.84440 | 18.85966 | 34106 ft | 384 kts | 268° |
| 2026-04-29 22:51 | 35.83901 | 18.79391 | 34099 ft | 383 kts | 268° |
| 2026-04-29 22:51 | 35.83100 | 18.69622 | 34093 ft | 383 kts | 268° |
| 2026-04-29 22:52 | 35.82568 | 18.63098 | 34090 ft | 383 kts | 268° |
| 2026-04-29 22:52 | 35.82028 | 18.56556 | 34091 ft | 383 kts | 268° |
| 2026-04-29 22:53 | 35.81484 | 18.50017 | 34092 ft | 384 kts | 267° |
| 2026-04-29 22:53 | 35.80936 | 18.43487 | 34096 ft | 383 kts | 267° |
| 2026-04-29 22:54 | 35.80382 | 18.36908 | 34088 ft | 391 kts | 266° |
| 2026-04-29 22:54 | 35.79812 | 18.30209 | 34084 ft | 394 kts | 266° |
| 2026-04-29 22:55 | 35.79233 | 18.23492 | 34087 ft | 395 kts | 266° |
| 2026-04-29 22:55 | 35.79121 | 18.16770 | 34088 ft | 392 kts | 277° |
| 2026-04-29 22:56 | 35.79654 | 18.10099 | 34082 ft | 392 kts | 277° |
| 2026-04-29 22:56 | 35.80177 | 18.03419 | 34081 ft | 392 kts | 277° |
| 2026-04-29 22:57 | 35.80690 | 17.96733 | 34080 ft | 392 kts | 276° |
| 2026-04-29 22:57 | 35.81193 | 17.90043 | 34082 ft | 392 kts | 276° |
| 2026-04-29 22:58 | 35.81694 | 17.83360 | 34083 ft | 392 kts | 276° |
| 2026-04-29 22:58 | 35.82201 | 17.76664 | 34083 ft | 392 kts | 276° |
| 2026-04-29 22:59 | 35.82707 | 17.69963 | 34079 ft | 392 kts | 276° |
| 2026-04-29 22:59 | 35.83210 | 17.63271 | 34080 ft | 393 kts | 276° |
| 2026-04-29 23:00 | 35.83706 | 17.56567 | 34078 ft | 393 kts | 276° |
| 2026-04-29 23:00 | 35.84197 | 17.49861 | 34080 ft | 393 kts | 276° |
| 2026-04-29 23:01 | 35.84679 | 17.43153 | 34079 ft | 393 kts | 276° |
| 2026-04-29 23:01 | 35.85164 | 17.36436 | 34079 ft | 393 kts | 276° |
| 2026-04-29 23:02 | 35.85646 | 17.29725 | 34082 ft | 393 kts | 276° |
| 2026-04-29 23:02 | 35.86123 | 17.23010 | 34083 ft | 393 kts | 276° |
| 2026-04-29 23:03 | 35.86598 | 17.16292 | 34077 ft | 393 kts | 276° |
| 2026-04-29 23:03 | 35.87062 | 17.09614 | 34079 ft | 393 kts | 276° |
| 2026-04-29 23:04 | 35.87522 | 17.02891 | 34079 ft | 393 kts | 275° |
| 2026-04-29 23:04 | 35.87979 | 16.96173 | 34076 ft | 393 kts | 275° |
| 2026-04-29 23:05 | 35.88440 | 16.89459 | 34072 ft | 393 kts | 275° |
| 2026-04-29 23:05 | 35.88905 | 16.82743 | 34070 ft | 393 kts | 275° |
| 2026-04-29 23:06 | 35.89351 | 16.76030 | 34072 ft | 393 kts | 275° |
| 2026-04-29 23:06 | 35.89799 | 16.69315 | 34073 ft | 393 kts | 275° |
| 2026-04-29 23:07 | 35.90244 | 16.62591 | 34069 ft | 393 kts | 275° |
| 2026-04-29 23:07 | 35.90685 | 16.55860 | 34071 ft | 394 kts | 275° |
| 2026-04-29 23:08 | 35.91121 | 16.49128 | 34073 ft | 394 kts | 275° |
| 2026-04-29 23:08 | 35.91550 | 16.42431 | 34073 ft | 394 kts | 275° |
| 2026-04-29 23:09 | 35.91974 | 16.35697 | 34072 ft | 394 kts | 275° |
| 2026-04-29 23:09 | 35.92402 | 16.28963 | 34067 ft | 394 kts | 274° |
| 2026-04-29 23:10 | 35.92825 | 16.22214 | 34065 ft | 394 kts | 274° |
| 2026-04-29 23:10 | 35.93249 | 16.15470 | 34064 ft | 395 kts | 274° |
| 2026-04-29 23:11 | 35.93666 | 16.08709 | 34067 ft | 395 kts | 274° |
| 2026-04-29 23:11 | 35.94077 | 16.01962 | 34067 ft | 395 kts | 274° |
| 2026-04-29 23:12 | 35.94487 | 15.95207 | 34064 ft | 395 kts | 274° |
| 2026-04-29 23:12 | 35.94893 | 15.88441 | 34059 ft | 395 kts | 274° |
| 2026-04-29 23:13 | 35.95299 | 15.81683 | 34058 ft | 395 kts | 274° |
| 2026-04-29 23:13 | 35.95713 | 15.74917 | 34058 ft | 395 kts | 274° |
| 2026-04-29 23:14 | 35.96114 | 15.68155 | 34061 ft | 395 kts | 274° |
| 2026-04-29 23:14 | 35.96504 | 15.61395 | 34061 ft | 395 kts | 274° |
| 2026-04-29 23:15 | 35.96886 | 15.54641 | 34049 ft | 395 kts | 274° |
| 2026-04-29 23:15 | 35.97265 | 15.47895 | 34062 ft | 393 kts | 274° |
| 2026-04-29 23:16 | 35.97642 | 15.41169 | 34065 ft | 392 kts | 274° |
| 2026-04-29 23:16 | 35.98011 | 15.34452 | 34065 ft | 392 kts | 274° |
| 2026-04-29 23:17 | 35.98380 | 15.27750 | 34067 ft | 391 kts | 273° |
| 2026-04-29 23:17 | 35.98744 | 15.21042 | 34064 ft | 391 kts | 273° |
| 2026-04-29 23:18 | 35.99100 | 15.14350 | 34061 ft | 391 kts | 273° |
| 2026-04-29 23:18 | 35.99461 | 15.07662 | 34057 ft | 391 kts | 273° |
| 2026-04-29 23:19 | 35.99818 | 15.00966 | 34051 ft | 390 kts | 273° |
| 2026-04-29 23:19 | 36.00104 | 14.95406 | 34050 ft | 390 kts | 273° |
| 2026-04-29 23:20 | 36.00445 | 14.88721 | 34049 ft | 390 kts | 273° |
| 2026-04-29 23:20 | 36.00782 | 14.82051 | 34057 ft | 389 kts | 273° |
| 2026-04-29 23:21 | 36.01172 | 14.74317 | 34061 ft | 388 kts | 273° |
| 2026-04-29 23:21 | 36.01453 | 14.68757 | 34059 ft | 387 kts | 273° |
| 2026-04-29 23:22 | 36.01786 | 14.62116 | 34049 ft | 387 kts | 273° |
| 2026-04-29 23:22 | 36.01842 | 14.60997 | 34049 ft | 387 kts | 273° |